createdAt,value
2023-01-17T00:03:06.463Z,95536.06
2023-01-17T00:05:52.271Z,95545.41
2023-01-17T00:08:37.939Z,95545.56
2023-01-17T00:11:05.143Z,95542.81
2023-01-17T00:13:32.354Z,95555.94
2023-01-17T00:19:06.655Z,95551.75
2023-01-17T00:21:52.414Z,95536.53
2023-01-17T00:27:45.078Z,95551.94
2023-01-17T00:32:59.267Z,95559.28
2023-01-17T00:35:26.405Z,95556.69
2023-01-17T00:37:53.564Z,95560.88
2023-01-17T00:43:26.399Z,95569.03
2023-01-17T00:52:23.690Z,95592.94
2023-01-17T00:55:09.717Z,95589.53
2023-01-17T00:57:55.724Z,95597.47
2023-01-17T01:03:47.032Z,95605.47
2023-01-17T01:06:32.702Z,95603.66
2023-01-17T01:12:24.488Z,95607.59
2023-01-17T01:15:10.168Z,95614.22
2023-01-17T01:17:55.994Z,95610.00
2023-01-17T01:20:41.781Z,95622.97
2023-01-17T01:23:27.549Z,95625.13
2023-01-17T01:26:13.366Z,95627.56
2023-01-17T01:28:59.430Z,95632.91
2023-01-17T01:31:45.373Z,95626.75
2023-01-17T01:34:12.573Z,95625.50
2023-01-17T01:36:39.751Z,95618.53
2023-01-17T01:39:07.004Z,95623.88
2023-01-17T01:41:34.196Z,95626.66
2023-01-17T01:46:48.481Z,95632.66
2023-01-17T01:52:02.735Z,95641.78
2023-01-17T01:54:29.905Z,95643.22
2023-01-17T01:59:24.689Z,95658.34
2023-01-17T02:01:51.971Z,95650.16
2023-01-17T02:07:08.154Z,95653.75
2023-01-17T02:09:35.395Z,95653.94
2023-01-17T02:12:02.592Z,95666.13
2023-01-17T02:14:29.815Z,95658.50
2023-01-17T02:19:44.090Z,95657.69
2023-01-17T02:24:58.390Z,95657.25
2023-01-17T02:27:25.638Z,95662.63
2023-01-17T02:29:52.818Z,95663.41
2023-01-17T02:35:07.095Z,95660.81
2023-01-17T02:37:34.896Z,95664.03
2023-01-17T02:40:02.106Z,95660.03
2023-01-17T02:42:29.455Z,95666.81
2023-01-17T02:44:56.639Z,95659.22
2023-01-17T02:47:23.980Z,95666.81
2023-01-17T02:49:51.154Z,95667.16
2023-01-17T02:55:05.433Z,95666.34
2023-01-17T02:57:32.619Z,95660.38
2023-01-17T02:59:59.782Z,95655.72
2023-01-17T03:02:27.157Z,95651.34
2023-01-17T03:04:54.367Z,95663.16
2023-01-17T03:10:08.707Z,95665.09
2023-01-17T03:12:35.894Z,95678.06
2023-01-17T03:15:03.131Z,95677.09
2023-01-17T03:17:30.386Z,95685.22
2023-01-17T03:19:57.651Z,95688.63
2023-01-17T03:22:24.879Z,95697.56
2023-01-17T03:24:52.127Z,95696.56
2023-01-17T03:30:06.409Z,95709.38
2023-01-17T03:32:33.596Z,95713.28
2023-01-17T03:37:47.862Z,95718.13
2023-01-17T03:42:42.811Z,95714.91
2023-01-17T03:45:09.997Z,95732.41
2023-01-17T03:47:37.312Z,95729.69
2023-01-17T03:50:04.484Z,95726.63
2023-01-17T03:52:31.683Z,95724.50
2023-01-17T03:57:45.990Z,95732.59
2023-01-17T04:03:00.273Z,95742.34
2023-01-17T04:05:27.527Z,95750.91
2023-01-17T04:07:54.784Z,95738.94
2023-01-17T04:13:09.176Z,95737.16
2023-01-17T04:15:36.353Z,95740.09
2023-01-17T04:18:03.988Z,95741.88
2023-01-17T04:20:31.298Z,95748.69
2023-01-17T04:22:58.469Z,95746.25
2023-01-17T04:25:25.794Z,95753.25
2023-01-17T04:27:52.973Z,95750.03
2023-01-17T04:30:20.182Z,95751.97
2023-01-17T04:32:47.388Z,95756.97
2023-01-17T04:38:01.700Z,95768.78
2023-01-17T04:40:29.621Z,95762.81
2023-01-17T04:42:57.666Z,95768.00
2023-01-17T04:47:51.995Z,95775.13
2023-01-17T04:50:19.204Z,95779.16
2023-01-17T04:52:46.419Z,95788.28
2023-01-17T04:58:00.749Z,95790.41
2023-01-17T05:00:27.950Z,95789.59
2023-01-17T05:02:55.216Z,95801.06
2023-01-17T05:05:22.449Z,95802.22
2023-01-17T05:07:49.623Z,95804.81
2023-01-17T05:10:16.790Z,95805.16
2023-01-17T05:12:43.970Z,95810.16
2023-01-17T05:15:11.138Z,95817.13
2023-01-17T05:17:38.315Z,95810.34
2023-01-17T05:20:05.485Z,95810.34
2023-01-17T05:22:32.648Z,95815.69
2023-01-17T05:24:59.812Z,95824.28
2023-01-17T05:27:27.331Z,95821.25
2023-01-17T05:29:54.513Z,95820.25
2023-01-17T05:32:21.684Z,95814.72
2023-01-17T05:34:48.905Z,95813.28
2023-01-17T05:40:03.550Z,95812.66
2023-01-17T05:42:30.720Z,95816.06
2023-01-17T05:44:57.892Z,95813.28
2023-01-17T05:47:25.123Z,95822.03
2023-01-17T05:49:52.290Z,95813.47
2023-01-17T05:52:20.593Z,95820.44
2023-01-17T05:54:47.836Z,95832.06
2023-01-17T06:00:02.989Z,95825.78
2023-01-17T06:02:30.358Z,95843.78
2023-01-17T06:04:57.585Z,95850.72
2023-01-17T06:07:24.783Z,95852.84
2023-01-17T06:09:51.952Z,95852.03
2023-01-17T06:12:20.411Z,95852.69
2023-01-17T06:14:48.702Z,95850.91
2023-01-17T06:20:04.166Z,95846.50
2023-01-17T06:22:31.337Z,95841.66
2023-01-17T06:24:58.544Z,95844.09
2023-01-17T06:27:25.733Z,95841.50
2023-01-17T06:29:52.999Z,95843.13
2023-01-17T06:32:20.364Z,95841.84
2023-01-17T06:34:47.536Z,95839.06
2023-01-17T06:40:01.827Z,95840.06
2023-01-17T06:42:29.040Z,95838.59
2023-01-17T06:44:56.204Z,95838.59
2023-01-17T06:47:24.125Z,95840.22
2023-01-17T06:49:51.302Z,95840.38
2023-01-17T06:52:18.472Z,95842.97
2023-01-17T06:54:45.646Z,95837.47
2023-01-17T06:57:12.820Z,95854.97
2023-01-17T06:59:40.087Z,95851.56
2023-01-17T07:02:07.282Z,95848.16
2023-01-17T07:04:34.486Z,95859.81
2023-01-17T07:07:01.656Z,95859.19
2023-01-17T07:09:28.863Z,95860.16
2023-01-17T07:11:59.710Z,95861.44
2023-01-17T07:14:26.958Z,95863.38
2023-01-17T07:16:54.140Z,95864.38
2023-01-17T07:19:21.357Z,95872.63
2023-01-17T07:21:48.647Z,95870.66
2023-01-17T07:27:03.023Z,95870.66
2023-01-17T07:29:30.205Z,95865.81
2023-01-17T07:31:57.387Z,95866.28
2023-01-17T07:34:24.554Z,95873.44
2023-01-17T07:36:51.738Z,95872.28
2023-01-17T07:39:18.930Z,95875.69
2023-01-17T07:41:47.136Z,95874.69
2023-01-17T07:44:14.372Z,95873.25
2023-01-17T07:46:41.589Z,95871.91
2023-01-17T07:49:08.832Z,95870.69
2023-01-17T07:51:36.076Z,95854.47
2023-01-17T07:54:03.637Z,95857.81
2023-01-17T07:56:30.842Z,95848.22
2023-01-17T07:58:58.085Z,95835.56
2023-01-17T08:01:25.432Z,95845.94
2023-01-17T08:03:54.859Z,95850.41
2023-01-17T08:06:22.144Z,95853.03
2023-01-17T08:08:49.349Z,95855.63
2023-01-17T08:13:43.721Z,95845.34
2023-01-17T08:16:10.996Z,95853.00
2023-01-17T08:18:38.204Z,95853.78
2023-01-17T08:21:06.999Z,95849.06
2023-01-17T08:23:34.200Z,95851.66
2023-01-17T08:26:01.500Z,95847.88
2023-01-17T08:28:28.684Z,95846.09
2023-01-17T08:33:43.087Z,95856.13
2023-01-17T08:36:10.333Z,95848.81
2023-01-17T08:38:37.508Z,95846.41
2023-01-17T08:41:04.709Z,95845.06
2023-01-17T08:43:31.884Z,95856.25
2023-01-17T08:45:59.117Z,95841.03
2023-01-17T08:48:26.353Z,95839.88
2023-01-17T08:50:53.528Z,95839.88
2023-01-17T08:53:23.153Z,95836.28
2023-01-17T08:55:51.280Z,95835.16
2023-01-17T08:58:18.514Z,95848.75
2023-01-17T09:00:45.739Z,95851.63
2023-01-17T09:06:01.557Z,95851.09
2023-01-17T09:08:28.741Z,95858.59
2023-01-17T09:10:55.921Z,95852.91
2023-01-17T09:13:23.105Z,95852.41
2023-01-17T09:15:50.289Z,95850.59
2023-01-17T09:18:17.491Z,95857.06
2023-01-17T09:20:44.661Z,95855.44
2023-01-17T09:23:11.870Z,95855.25
2023-01-17T09:25:44.480Z,95849.13
2023-01-17T09:28:11.686Z,95854.47
2023-01-17T09:30:39.229Z,95854.13
2023-01-17T09:33:06.524Z,95855.00
2023-01-17T09:35:34.459Z,95857.69
2023-01-17T09:38:01.662Z,95850.38
2023-01-17T09:40:28.850Z,95855.72
2023-01-17T09:42:58.081Z,95853.97
2023-01-17T09:51:01.593Z,95839.44
2023-01-17T09:53:28.774Z,95839.25
2023-01-17T09:55:55.947Z,95842.03
2023-01-17T09:58:23.179Z,95837.66
2023-01-17T10:00:50.444Z,95843.03
2023-01-17T10:03:17.759Z,95835.84
2023-01-17T10:05:45.052Z,95836.66
2023-01-17T10:08:12.287Z,95835.69
2023-01-17T10:10:39.465Z,95836.03
2023-01-17T10:13:06.655Z,95837.66
2023-01-17T10:15:33.847Z,95833.44
2023-01-17T10:18:01.026Z,95833.72
2023-01-17T10:20:34.002Z,95828.53
2023-01-17T10:23:01.275Z,95827.09
2023-01-17T10:25:28.488Z,95815.53
2023-01-17T10:27:55.752Z,95820.72
2023-01-17T10:30:22.968Z,95816.97
2023-01-17T10:32:50.504Z,95812.41
2023-01-17T10:35:17.718Z,95807.75
2023-01-17T10:40:32.141Z,95811.97
2023-01-17T10:42:59.330Z,95814.03
2023-01-17T10:45:28.911Z,95815.63
2023-01-17T10:47:56.204Z,95810.44
2023-01-17T10:50:23.382Z,95816.44
2023-01-17T10:52:52.807Z,95812.22
2023-01-17T10:55:20.019Z,95808.19
2023-01-17T10:57:47.208Z,95813.22
2023-01-17T11:03:01.571Z,95808.84
2023-01-17T11:05:29.033Z,95796.66
2023-01-17T11:07:56.292Z,95801.03
2023-01-17T11:10:23.476Z,95795.66
2023-01-17T11:12:50.650Z,95791.25
2023-01-17T11:17:46.849Z,95781.50
2023-01-17T11:23:02.277Z,95777.75
2023-01-17T11:25:29.456Z,95768.97
2023-01-17T11:27:56.645Z,95758.75
2023-01-17T11:30:29.314Z,95756.16
2023-01-17T11:32:56.491Z,95750.78
2023-01-17T11:35:25.664Z,95741.38
2023-01-17T11:37:52.881Z,95744.78
2023-01-17T11:40:20.115Z,95744.41
2023-01-17T11:42:47.347Z,95739.22
2023-01-17T11:48:01.596Z,95722.81
2023-01-17T11:50:28.766Z,95728.81
2023-01-17T11:52:56.688Z,95724.25
2023-01-17T11:55:23.860Z,95719.06
2023-01-17T11:57:51.068Z,95715.31
2023-01-17T12:00:19.405Z,95710.28
2023-01-17T12:02:46.658Z,95706.75
2023-01-17T12:08:05.305Z,95703.25
2023-01-17T12:10:32.570Z,95707.50
2023-01-17T12:13:18.480Z,95699.50
2023-01-17T12:15:45.560Z,95707.66
2023-01-17T12:18:13.656Z,95707.75
2023-01-17T12:20:41.506Z,95709.97
2023-01-17T12:26:00.931Z,95708.09
2023-01-17T12:28:28.226Z,95704.50
2023-01-17T12:30:55.483Z,95704.94
2023-01-17T12:33:22.771Z,95713.38
2023-01-17T12:35:50.699Z,95712.38
2023-01-17T12:38:31.742Z,95706.81
2023-01-17T12:41:00.263Z,95705.56
2023-01-17T12:43:27.446Z,95709.78
2023-01-17T12:45:54.738Z,95700.81
2023-01-17T12:48:21.925Z,95698.03
2023-01-17T12:50:49.359Z,95697.41
2023-01-17T12:53:16.639Z,95690.44
2023-01-17T12:55:44.329Z,95687.81
2023-01-17T12:58:11.556Z,95676.63
2023-01-17T13:00:38.780Z,95672.22
2023-01-17T13:03:05.991Z,95665.22
2023-01-17T13:05:33.222Z,95664.66
2023-01-17T13:08:00.401Z,95651.50
2023-01-17T13:10:27.636Z,95655.06
2023-01-17T13:12:54.854Z,95652.88
2023-01-17T13:15:22.062Z,95664.66
2023-01-17T13:17:49.342Z,95673.09
2023-01-17T13:20:16.609Z,95681.50
2023-01-17T13:22:43.791Z,95663.16
2023-01-17T13:25:11.030Z,95667.16
2023-01-17T13:27:38.214Z,95663.16
2023-01-17T13:30:05.408Z,95663.94
2023-01-17T13:32:32.689Z,95655.94
2023-01-17T13:35:01.699Z,95650.94
2023-01-17T13:37:29.110Z,95643.59
2023-01-17T13:39:56.295Z,95637.94
2023-01-17T13:42:23.740Z,95647.19
2023-01-17T13:44:50.916Z,95646.19
2023-01-17T13:47:18.132Z,95657.81
2023-01-17T13:49:45.439Z,95649.88
2023-01-17T13:52:12.682Z,95645.13
2023-01-17T13:54:39.862Z,95640.72
2023-01-17T13:57:07.050Z,95632.69
2023-01-17T13:59:34.351Z,95631.06
2023-01-17T14:02:01.591Z,95634.34
2023-01-17T14:04:28.777Z,95621.28
2023-01-17T14:06:56.667Z,95631.69
2023-01-17T14:12:11.444Z,95625.13
2023-01-17T14:14:38.649Z,95621.53
2023-01-17T14:17:05.845Z,95607.75
2023-01-17T14:19:33.023Z,95603.34
2023-01-17T14:22:01.810Z,95603.53
2023-01-17T14:24:30.301Z,95604.75
2023-01-17T14:27:00.304Z,95606.91
2023-01-17T14:29:27.559Z,95594.75
2023-01-17T14:31:54.792Z,95593.91
2023-01-17T14:34:22.028Z,95592.31
2023-01-17T14:36:49.205Z,95592.16
2023-01-17T14:39:16.388Z,95591.94
2023-01-17T14:41:43.589Z,95583.53
2023-01-17T14:44:10.777Z,95579.31
2023-01-17T14:46:37.970Z,95579.94
2023-01-17T14:49:05.809Z,95571.16
2023-01-17T14:51:37.254Z,95566.59
2023-01-17T14:54:06.401Z,95558.81
2023-01-17T14:56:33.585Z,95561.41
2023-01-17T14:59:00.774Z,95551.81
2023-01-17T15:01:28.137Z,95550.03
2023-01-17T15:03:55.366Z,95551.00
2023-01-17T15:09:09.705Z,95556.22
2023-01-17T15:11:36.938Z,95557.00
2023-01-17T15:14:05.909Z,95556.84
2023-01-17T15:16:36.317Z,95557.22
2023-01-17T15:19:03.584Z,95566.63
2023-01-17T15:24:17.852Z,95555.84
2023-01-17T15:26:45.069Z,95555.69
2023-01-17T15:29:12.273Z,95547.88
2023-01-17T15:31:39.472Z,95560.03
2023-01-17T15:34:06.698Z,95557.44
2023-01-17T15:36:34.396Z,95557.41
2023-01-17T15:39:01.701Z,95552.66
2023-01-17T15:41:28.911Z,95556.84
2023-01-17T15:43:58.566Z,95557.00
2023-01-17T15:46:26.170Z,95558.81
2023-01-17T15:48:53.407Z,95559.00
2023-01-17T15:51:20.573Z,95556.03
2023-01-17T15:53:47.762Z,95555.69
2023-01-17T15:56:14.943Z,95552.06
2023-01-17T15:58:42.124Z,95550.88
2023-01-17T16:01:09.642Z,95545.66
2023-01-17T16:06:05.386Z,95555.69
2023-01-17T16:08:32.596Z,95545.72
2023-01-17T16:11:02.304Z,95546.94
2023-01-17T16:13:29.825Z,95539.13
2023-01-17T16:15:57.057Z,95546.66
2023-01-17T16:18:24.300Z,95534.91
2023-01-17T16:20:51.501Z,95536.09
2023-01-17T16:23:18.739Z,95545.50
2023-01-17T16:25:46.290Z,95548.53
2023-01-17T16:28:13.576Z,95540.09
2023-01-17T16:30:40.799Z,95538.28
2023-01-17T16:33:07.987Z,95547.91
2023-01-17T16:35:35.205Z,95552.31
2023-01-17T16:38:02.423Z,95560.72
2023-01-17T16:40:29.617Z,95557.34
2023-01-17T16:42:56.817Z,95555.69
2023-01-17T16:45:24.912Z,95555.53
2023-01-17T16:47:52.663Z,95556.50
2023-01-17T16:50:22.375Z,95564.13
2023-01-17T16:52:49.694Z,95565.66
2023-01-17T16:55:17.057Z,95574.47
2023-01-17T17:00:12.126Z,95568.84
2023-01-17T17:02:40.763Z,95579.88
2023-01-17T17:05:08.020Z,95579.19
2023-01-17T17:07:35.588Z,95578.00
2023-01-17T17:10:02.803Z,95581.25
2023-01-17T17:12:29.993Z,95569.03
2023-01-17T17:14:57.180Z,95567.25
2023-01-17T17:17:24.411Z,95568.41
2023-01-17T17:19:51.637Z,95567.41
2023-01-17T17:22:27.981Z,95574.63
2023-01-17T17:24:55.222Z,95562.97
2023-01-17T17:27:26.337Z,95561.38
2023-01-17T17:29:53.531Z,95565.72
2023-01-17T17:32:20.791Z,95568.56
2023-01-17T17:34:48.017Z,95567.75
2023-01-17T17:37:16.126Z,95557.50
2023-01-17T17:39:44.535Z,95565.66
2023-01-17T17:42:11.777Z,95563.66
2023-01-17T17:44:39.031Z,95561.69
2023-01-17T17:47:06.222Z,95561.81
2023-01-17T17:49:33.498Z,95570.41
2023-01-17T17:52:00.660Z,95569.00
2023-01-17T17:54:27.838Z,95576.13
2023-01-17T17:56:55.835Z,95582.84
2023-01-17T17:59:23.964Z,95582.41
2023-01-17T18:01:51.357Z,95576.59
2023-01-17T18:04:18.710Z,95577.41
2023-01-17T18:06:45.946Z,95579.44
2023-01-17T18:09:13.170Z,95582.41
2023-01-17T18:14:27.460Z,95578.41
2023-01-17T18:16:54.710Z,95578.41
2023-01-17T18:22:09.099Z,95578.03
2023-01-17T18:24:36.316Z,95576.84
2023-01-17T18:27:03.599Z,95580.44
2023-01-17T18:29:30.777Z,95586.31
2023-01-17T18:31:57.978Z,95589.34
2023-01-17T18:34:26.980Z,95592.13
2023-01-17T18:36:54.219Z,95589.72
2023-01-17T18:39:21.485Z,95593.72
2023-01-17T18:41:49.387Z,95590.59
2023-01-17T18:44:16.627Z,95586.56
2023-01-17T18:46:43.860Z,95583.75
2023-01-17T18:49:11.158Z,95585.75
2023-01-17T18:51:38.413Z,95585.69
2023-01-17T18:54:07.125Z,95578.53
2023-01-17T18:56:34.848Z,95575.13
2023-01-17T18:59:02.071Z,95577.72
2023-01-17T19:01:29.374Z,95579.41
2023-01-17T19:03:57.986Z,95582.72
2023-01-17T19:06:25.308Z,95584.31
2023-01-17T19:08:52.479Z,95576.53
2023-01-17T19:11:19.685Z,95574.94
2023-01-17T19:13:48.607Z,95574.19
2023-01-17T19:16:15.926Z,95582.03
2023-01-17T19:18:43.372Z,95587.25
2023-01-17T19:21:10.574Z,95588.44
2023-01-17T19:23:37.792Z,95588.97
2023-01-17T19:26:05.020Z,95597.38
2023-01-17T19:28:34.687Z,95597.75
2023-01-17T19:31:02.627Z,95600.59
2023-01-17T19:33:29.817Z,95603.81
2023-01-17T19:35:57.002Z,95605.63
2023-01-17T19:38:24.188Z,95609.22
2023-01-17T19:40:51.363Z,95608.03
2023-01-17T19:43:20.811Z,95609.66
2023-01-17T19:45:48.902Z,95611.63
2023-01-17T19:48:17.015Z,95617.63
2023-01-17T19:50:45.754Z,95619.63
2023-01-17T19:53:12.962Z,95617.53
2023-01-17T19:58:07.286Z,95620.53
2023-01-17T20:00:45.949Z,95621.13
2023-01-17T20:03:13.766Z,95622.28
2023-01-17T20:08:09.849Z,95615.34
2023-01-17T20:10:37.083Z,95608.50
2023-01-17T20:13:10.848Z,95611.50
2023-01-17T20:18:08.652Z,95608.25
2023-01-17T20:20:39.585Z,95608.63
2023-01-17T20:23:13.573Z,95614.00
2023-01-17T20:28:27.945Z,95620.63
2023-01-17T20:30:55.433Z,95619.91
2023-01-17T20:33:23.211Z,95619.53
2023-01-17T20:36:04.868Z,95624.16
2023-01-17T20:41:32.864Z,95622.13
2023-01-17T20:44:00.110Z,95616.56
2023-01-17T20:46:27.308Z,95616.94
2023-01-17T20:48:54.640Z,95620.34
2023-01-17T20:51:21.859Z,95621.13
2023-01-17T20:53:49.036Z,95617.94
2023-01-17T20:56:17.242Z,95619.53
2023-01-17T20:58:44.441Z,95623.66
2023-01-17T21:01:11.704Z,95624.50
2023-01-17T21:03:39.664Z,95623.94
2023-01-17T21:06:06.858Z,95621.13
2023-01-17T21:08:34.092Z,95620.34
2023-01-17T21:11:01.344Z,95627.94
2023-01-17T21:13:28.541Z,95630.38
2023-01-17T21:15:55.747Z,95629.38
2023-01-17T21:18:22.993Z,95629.13
2023-01-17T21:20:50.527Z,95631.66
2023-01-17T21:23:20.565Z,95628.59
2023-01-17T21:25:47.733Z,95624.97
2023-01-17T21:28:14.937Z,95623.69
2023-01-17T21:30:42.438Z,95626.91
2023-01-17T21:33:09.686Z,95621.63
2023-01-17T21:35:36.882Z,95624.97
2023-01-17T21:38:04.075Z,95616.41
2023-01-17T21:40:31.280Z,95615.84
2023-01-17T21:42:58.462Z,95616.31
2023-01-17T21:45:31.961Z,95611.50
2023-01-17T21:47:59.303Z,95608.69
2023-01-17T21:50:33.340Z,95609.50
2023-01-17T21:53:00.972Z,95609.69
2023-01-17T21:55:47.077Z,95607.28
2023-01-17T21:58:33.174Z,95609.88
2023-01-17T22:01:16.083Z,95609.88
2023-01-17T22:03:43.338Z,95606.09
2023-01-17T22:06:10.545Z,95613.66
2023-01-17T22:08:37.936Z,95610.41
2023-01-17T22:11:07.252Z,95604.06
2023-01-17T22:13:34.433Z,95608.59
2023-01-17T22:16:01.648Z,95608.06
2023-01-17T22:18:28.867Z,95616.41
2023-01-17T22:20:56.169Z,95616.25
2023-01-17T22:23:23.454Z,95609.44
2023-01-17T22:25:50.644Z,95613.00
2023-01-17T22:28:17.820Z,95609.97
2023-01-17T22:33:32.161Z,95613.38
2023-01-17T22:35:59.357Z,95606.34
2023-01-17T22:38:26.544Z,95603.91
2023-01-17T22:40:53.716Z,95613.72
2023-01-17T22:43:21.961Z,95599.69
2023-01-17T22:45:49.136Z,95603.72
2023-01-17T22:48:16.336Z,95598.91
2023-01-17T22:53:30.629Z,95600.06
2023-01-17T22:55:57.855Z,95597.09
2023-01-17T22:58:27.353Z,95597.28
2023-01-17T23:00:54.869Z,95599.06
2023-01-17T23:03:22.073Z,95593.25
2023-01-17T23:05:49.277Z,95594.25
2023-01-17T23:08:16.451Z,95594.44
2023-01-17T23:11:02.352Z,95593.44
2023-01-17T23:13:29.364Z,95597.38
2023-01-17T23:16:15.458Z,95595.97
2023-01-17T23:19:01.536Z,95591.47
2023-01-17T23:21:48.698Z,95600.25
2023-01-17T23:24:15.892Z,95596.66
2023-01-17T23:27:03.072Z,95596.13
2023-01-17T23:29:30.262Z,95593.81
2023-01-17T23:31:57.511Z,95587.19
2023-01-17T23:34:24.702Z,95587.00
2023-01-17T23:36:51.890Z,95594.63
2023-01-17T23:39:19.136Z,95595.66
2023-01-17T23:42:04.914Z,95589.22
2023-01-17T23:44:32.117Z,95591.38
2023-01-17T23:47:02.336Z,95593.16
2023-01-17T23:49:31.651Z,95589.97
2023-01-17T23:51:58.831Z,95585.28
2023-01-17T23:54:26.006Z,95588.88
2023-01-17T23:56:53.536Z,95585.28
2023-01-17T23:59:20.767Z,95589.69
